Archival Weather

Snohomish County (Paine Fld)

Everett, Washington (KPAE)

Report from: Saturday, November 18, 2023 3:53 AM PST
Current time: Friday, June 21, 2024 1:34 AM PDT

Current weather – Weather history – Daily summaries
Weather forecast

Temperature5.0°C (41.0°F)
Dew point0.0°C (32.0°F)
Winds Calm
Visibility10 mi. (16.1 km)
Clouds Sky clear
Altimeter29.83 in.Hg (1010 mB)
Relative humidity70 %
Density altitude-1,019 ft. (-310 m)
Sea-level pressure101.0 kPa (1010 mB, 29.84 in.Hg)
Max temp last 6 hours6.1°C (43.0°F)
Min temp last 6 hours2.8°C (37.0°F)
Remarks Fully automated report
Automated weather observing station with precipitation discriminator
Pressure falling more quickly
Flight conditions Visual Meteorological Conditions
Raw dataKPAE 181153Z AUTO 00000KT 10SM CLR 05/00 A2983 RMK AO2 SLP104 T00500000 10061 20028 58019
An error has occurred. This application may no longer respond until reloaded. Reload 🗙